Terminal Aerodrome Forecast
Issued by NWS

Home | Current Version | Previous Version | Text Only | Print | Product List | Glossary On
Versions: 1 2 3 4 5 6 7 8 9 10 11 12 13 14 15 16 17 18
000
FTUS42 KMLB 211902 AAA
TAFSUA
TAF AMD
KSUA 211902Z 2119/2218 10010G16KT P6SM VCSH SCT025
     FM220000 09009KT P6SM FEW025
     FM220600 08006KT P6SM VCSH FEW015 SCT020
     FM221400 08009KT P6SM VCTS SCT025CB SCT050=

USA.gov is the U.S. government's official web portal to all federal, state and local government web resources and services.